createdAt,value
2018-09-05T00:02:27.644Z,96129.66
2018-09-05T00:04:56.864Z,96125.78
2018-09-05T00:07:25.632Z,96131.28
2018-09-05T00:09:54.291Z,96123.19
2018-09-05T00:12:23.225Z,96126.90
2018-09-05T00:14:51.891Z,96128.06
2018-09-05T00:17:20.464Z,96123.03
2018-09-05T00:19:49.411Z,96126.77
2018-09-05T00:22:18.172Z,96125.95
2018-09-05T00:24:47.207Z,96132.74
2018-09-05T00:27:15.959Z,96135.83
2018-09-05T00:29:45.659Z,96132.08
2018-09-05T00:32:14.345Z,96137.92
2018-09-05T00:34:42.991Z,96137.45
2018-09-05T00:37:11.841Z,96137.45
2018-09-05T00:39:40.721Z,96136.30
2018-09-05T00:42:09.454Z,96134.69
2018-09-05T00:44:38.471Z,96137.28
2018-09-05T00:47:07.208Z,96137.76
2018-09-05T00:49:36.182Z,96138.44
2018-09-05T00:52:04.841Z,96133.56
2018-09-05T00:54:35.963Z,96135.19
2018-09-05T00:57:07.121Z,96129.17
2018-09-05T00:59:35.800Z,96127.56
2018-09-05T01:02:04.507Z,96133.72
2018-09-05T01:04:33.169Z,96137.11
2018-09-05T01:07:11.947Z,96136.46
2018-09-05T01:09:41.197Z,96129.66
2018-09-05T01:12:09.849Z,96123.48
2018-09-05T01:14:38.512Z,96123.50
2018-09-05T01:17:07.232Z,96132.23
2018-09-05T01:19:36.701Z,96125.61
2018-09-05T01:22:05.391Z,96127.05
2018-09-05T01:24:34.298Z,96125.77
2018-09-05T01:27:03.720Z,96131.76
2018-09-05T01:29:33.312Z,96132.23
2018-09-05T01:32:02.228Z,96132.23
2018-09-05T01:34:31.000Z,96129.49
2018-09-05T01:37:06.952Z,96132.56
2018-09-05T01:39:35.707Z,96129.92
2018-09-05T01:42:04.931Z,96142.72
2018-09-05T01:44:33.621Z,96133.00
2018-09-05T01:47:02.522Z,96138.49
2018-09-05T01:49:31.915Z,96138.02
2018-09-05T01:52:01.008Z,96143.02
2018-09-05T01:54:30.132Z,96141.09
2018-09-05T01:56:59.002Z,96141.09
2018-09-05T01:59:28.579Z,96139.64
2018-09-05T02:01:57.707Z,96143.84
2018-09-05T02:04:26.361Z,96145.62
2018-09-05T02:06:55.052Z,96140.42
2018-09-05T02:09:23.882Z,96138.16
2018-09-05T02:11:52.619Z,96142.52
2018-09-05T02:14:21.190Z,96141.36
2018-09-05T02:16:49.816Z,96143.31
2018-09-05T02:19:18.460Z,96141.23
2018-09-05T02:21:47.103Z,96144.61
2018-09-05T02:24:15.692Z,96142.34
2018-09-05T02:26:44.507Z,96147.05
2018-09-05T02:29:13.069Z,96145.44
2018-09-05T02:31:42.113Z,96141.57
2018-09-05T02:34:10.760Z,96142.55
2018-09-05T02:36:39.323Z,96138.49
2018-09-05T02:39:10.010Z,96139.78
2018-09-05T02:41:38.859Z,96140.91
2018-09-05T02:44:12.948Z,96142.02
2018-09-05T02:46:42.207Z,96135.70
2018-09-05T02:49:12.803Z,96140.70
2018-09-05T02:51:41.592Z,96139.58
2018-09-05T02:54:10.267Z,96142.16
2018-09-05T02:56:38.968Z,96142.64
2018-09-05T02:59:07.639Z,96148.94
2018-09-05T03:01:36.957Z,96146.48
2018-09-05T03:04:06.896Z,96151.77
2018-09-05T03:06:35.544Z,96146.41
2018-09-05T03:09:05.183Z,96150.95
2018-09-05T03:11:33.736Z,96145.30
2018-09-05T03:14:02.411Z,96149.16
2018-09-05T03:16:31.274Z,96152.22
2018-09-05T03:18:59.988Z,96155.25
2018-09-05T03:21:28.685Z,96157.67
2018-09-05T03:23:57.474Z,96155.28
2018-09-05T03:26:26.263Z,96157.39
2018-09-05T03:28:54.941Z,96161.59
2018-09-05T03:31:23.621Z,96161.75
2018-09-05T03:33:52.190Z,96167.23
2018-09-05T03:36:20.972Z,96174.84
2018-09-05T03:38:49.845Z,96168.19
2018-09-05T03:41:18.565Z,96172.20
2018-09-05T03:43:47.263Z,96174.66
2018-09-05T03:46:16.936Z,96168.78
2018-09-05T03:48:47.023Z,96166.52
2018-09-05T03:51:16.541Z,96173.99
2018-09-05T03:53:45.420Z,96172.58
2018-09-05T03:56:14.352Z,96174.22
2018-09-05T03:58:43.046Z,96177.47
2018-09-05T04:01:11.949Z,96176.67
2018-09-05T04:03:40.783Z,96183.14
2018-09-05T04:06:09.486Z,96151.84
2018-09-05T04:08:38.185Z,96180.88
2018-09-05T04:11:07.116Z,96183.80
2018-09-05T04:13:36.435Z,96187.66
2018-09-05T04:16:05.011Z,96189.36
2018-09-05T04:18:33.785Z,96194.38
2018-09-05T04:21:03.277Z,96202.11
2018-09-05T04:23:38.828Z,96195.13
2018-09-05T04:26:08.431Z,96193.48
2018-09-05T04:28:37.168Z,96196.84
2018-09-05T04:31:06.633Z,96198.77
2018-09-05T04:33:35.448Z,96196.14
2018-09-05T04:36:04.205Z,96196.14
2018-09-05T04:38:33.311Z,96199.80
2018-09-05T04:41:02.589Z,96203.98
2018-09-05T04:43:31.235Z,96206.45
2018-09-05T04:45:59.969Z,96210.61
2018-09-05T04:48:28.804Z,96213.82
2018-09-05T04:50:57.517Z,96211.86
2018-09-05T04:53:26.180Z,96209.58
2018-09-05T04:55:54.852Z,96216.04
2018-09-05T04:58:23.606Z,96224.47
2018-09-05T05:00:53.277Z,96226.27
2018-09-05T05:03:21.951Z,96227.42
2018-09-05T05:05:51.280Z,96227.02
2018-09-05T05:08:21.004Z,96222.91
2018-09-05T05:10:49.839Z,96224.28
2018-09-05T05:13:18.816Z,96221.23
2018-09-05T05:15:47.396Z,96227.42
2018-09-05T05:18:16.080Z,96226.64
2018-09-05T05:20:45.162Z,96238.32
2018-09-05T05:23:14.531Z,96233.16
2018-09-05T05:25:43.787Z,96244.00
2018-09-05T05:28:12.700Z,96245.16
2018-09-05T05:30:41.365Z,96241.81
2018-09-05T05:33:10.029Z,96245.38
2018-09-05T05:35:38.987Z,96242.64
2018-09-05T05:38:07.545Z,96245.27
2018-09-05T05:40:36.280Z,96242.98
2018-09-05T05:43:05.008Z,96243.66
2018-09-05T05:45:33.675Z,96242.87
2018-09-05T05:48:02.336Z,96241.10
2018-09-05T05:50:31.065Z,96244.07
2018-09-05T05:53:00.660Z,96241.67
2018-09-05T05:55:29.439Z,96248.02
2018-09-05T05:57:58.610Z,96246.09
2018-09-05T06:00:28.399Z,96238.84
2018-09-05T06:02:57.261Z,96242.75
2018-09-05T06:05:26.035Z,96240.75
2018-09-05T06:07:55.771Z,96245.33
2018-09-05T06:10:25.936Z,96246.75
2018-09-05T06:12:56.396Z,96246.09
2018-09-05T06:15:25.504Z,96255.28
2018-09-05T06:17:54.169Z,96255.12
2018-09-05T06:20:22.835Z,96251.42
2018-09-05T06:22:51.517Z,96256.98
2018-09-05T06:25:20.240Z,96257.66
2018-09-05T06:27:49.436Z,96259.67
2018-09-05T06:30:18.014Z,96256.78
2018-09-05T06:32:47.330Z,96256.97
2018-09-05T06:35:16.141Z,96260.25
2018-09-05T06:37:45.522Z,96258.61
2018-09-05T06:40:14.134Z,96263.33
2018-09-05T06:42:43.020Z,96259.30
2018-09-05T06:45:11.760Z,96261.09
2018-09-05T06:47:40.424Z,96262.08
2018-09-05T06:50:09.274Z,96260.00
2018-09-05T06:52:37.984Z,96255.46
2018-09-05T06:55:07.320Z,96250.60
2018-09-05T06:57:36.029Z,96254.49
2018-09-05T07:00:04.896Z,96255.78
2018-09-05T07:02:33.611Z,96258.20
2018-09-05T07:05:02.374Z,96256.59
2018-09-05T07:07:32.531Z,96259.83
2018-09-05T07:10:01.230Z,96257.40
2018-09-05T07:12:29.918Z,96256.91
2018-09-05T07:14:58.616Z,96253.68
2018-09-05T07:20:36.614Z,96267.61
2018-09-05T07:23:05.412Z,96259.50
2018-09-05T07:25:34.133Z,96256.75
2018-09-05T07:28:02.804Z,96256.77
2018-09-05T07:30:31.646Z,96260.66
2018-09-05T07:33:00.191Z,96264.55
2018-09-05T07:35:29.089Z,96263.73
2018-09-05T07:37:57.732Z,96265.55
2018-09-05T07:40:27.493Z,96261.62
2018-09-05T07:42:56.355Z,96255.75
2018-09-05T07:45:25.176Z,96252.44
2018-09-05T07:47:53.717Z,96257.47
2018-09-05T07:50:22.492Z,96254.99
2018-09-05T07:52:51.815Z,96249.11
2018-09-05T07:55:20.721Z,96248.14
2018-09-05T07:57:49.455Z,96247.80
2018-09-05T08:00:18.144Z,96248.45
2018-09-05T08:02:47.840Z,96253.28
2018-09-05T08:05:16.495Z,96255.12
2018-09-05T08:07:45.135Z,96250.99
2018-09-05T08:10:14.112Z,96249.20
2018-09-05T08:12:42.724Z,96244.77
2018-09-05T08:15:13.355Z,96254.10
2018-09-05T08:17:42.258Z,96255.91
2018-09-05T08:20:10.904Z,96250.53
2018-09-05T08:22:39.564Z,96256.50
2018-09-05T08:25:09.149Z,96253.81
2018-09-05T08:27:38.375Z,96250.00
2018-09-05T08:30:07.144Z,96253.69
2018-09-05T08:32:36.536Z,96253.41
2018-09-05T08:35:05.354Z,96253.20
2018-09-05T08:37:34.201Z,96249.55
2018-09-05T08:40:02.823Z,96252.63
2018-09-05T08:42:35.077Z,96249.59
2018-09-05T08:45:05.147Z,96245.52
2018-09-05T08:47:33.640Z,96245.92
2018-09-05T08:50:02.520Z,96248.78
2018-09-05T08:52:31.300Z,96249.72
2018-09-05T08:55:00.870Z,96239.22
2018-09-05T08:57:29.713Z,96243.05
2018-09-05T08:59:58.468Z,96235.89
2018-09-05T09:02:27.131Z,96236.65
2018-09-05T09:04:56.676Z,96236.52
2018-09-05T09:07:25.387Z,96233.58
2018-09-05T09:09:54.271Z,96232.95
2018-09-05T09:12:22.920Z,96235.31
2018-09-05T09:14:52.216Z,96228.08
2018-09-05T09:17:20.868Z,96223.02
2018-09-05T09:19:49.933Z,96228.61
2018-09-05T09:22:18.549Z,96224.30
2018-09-05T09:24:47.195Z,96221.84
2018-09-05T09:27:15.887Z,96223.30
2018-09-05T09:29:45.136Z,96229.03
2018-09-05T09:32:15.326Z,96225.91
2018-09-05T09:34:44.096Z,96219.53
2018-09-05T09:37:14.292Z,96220.11
2018-09-05T09:39:42.923Z,96214.25
2018-09-05T09:42:12.069Z,96216.84
2018-09-05T09:44:40.862Z,96216.12
2018-09-05T09:47:09.895Z,96217.55
2018-09-05T09:49:38.659Z,96216.73
2018-09-05T09:52:12.561Z,96215.14
2018-09-05T09:54:41.165Z,96211.69
2018-09-05T09:57:09.896Z,96209.15
2018-09-05T09:59:39.109Z,96204.31
2018-09-05T10:02:13.067Z,96205.66
2018-09-05T10:04:46.849Z,96201.31
2018-09-05T10:07:21.029Z,96201.61
2018-09-05T10:09:53.332Z,96194.73
2018-09-05T10:12:26.932Z,96201.27
2018-09-05T10:15:18.607Z,96198.23
2018-09-05T10:17:51.396Z,96197.63
2018-09-05T10:20:19.959Z,96197.02
2018-09-05T10:22:49.133Z,96202.46
2018-09-05T10:25:17.836Z,96199.27
2018-09-05T10:27:46.529Z,96192.34
2018-09-05T10:30:15.090Z,96190.34
2018-09-05T10:32:44.247Z,96183.95
2018-09-05T10:35:13.728Z,96184.73
2018-09-05T10:37:42.638Z,96179.41
2018-09-05T10:40:11.354Z,96178.95
2018-09-05T10:42:40.052Z,96174.84
2018-09-05T10:45:08.943Z,96174.08
2018-09-05T10:47:38.359Z,96180.16
2018-09-05T10:50:07.278Z,96177.98
2018-09-05T10:52:36.744Z,96181.38
2018-09-05T10:55:05.938Z,96177.11
2018-09-05T10:57:34.717Z,96172.80
2018-09-05T11:00:03.712Z,96170.61
2018-09-05T11:02:32.904Z,96165.77
2018-09-05T11:05:02.073Z,96165.59
2018-09-05T11:07:30.773Z,96167.82
2018-09-05T11:09:59.748Z,96160.66
2018-09-05T11:12:28.349Z,96164.19
2018-09-05T11:14:57.045Z,96164.75
2018-09-05T11:17:25.921Z,96167.81
2018-09-05T11:19:54.657Z,96175.96
2018-09-05T11:22:23.382Z,96176.59
2018-09-05T11:24:52.234Z,96180.55
2018-09-05T11:27:21.016Z,96178.71
2018-09-05T11:29:49.755Z,96178.73
2018-09-05T11:32:18.435Z,96177.53
2018-09-05T11:34:47.130Z,96172.35
2018-09-05T11:37:16.012Z,96170.20
2018-09-05T11:39:44.911Z,96163.81
2018-09-05T11:42:17.659Z,96163.98
2018-09-05T11:44:47.981Z,96158.84
2018-09-05T11:47:16.506Z,96155.86
2018-09-05T11:49:45.208Z,96159.12
2018-09-05T11:52:14.152Z,96156.03
2018-09-05T11:54:42.802Z,96152.86
2018-09-05T11:57:12.741Z,96153.14
2018-09-05T11:59:41.572Z,96151.47
2018-09-05T12:02:11.894Z,96142.34
2018-09-05T12:04:41.512Z,96142.01
2018-09-05T12:07:10.844Z,96142.01
2018-09-05T12:09:40.711Z,96143.72
2018-09-05T12:12:10.186Z,96139.88
2018-09-05T12:14:40.356Z,96137.09
2018-09-05T12:17:09.588Z,96139.61
2018-09-05T12:19:38.225Z,96140.65
2018-09-05T12:22:06.929Z,96142.19
2018-09-05T12:24:36.088Z,96140.42
2018-09-05T12:27:06.018Z,96143.73
2018-09-05T12:29:34.953Z,96137.55
2018-09-05T12:32:04.328Z,96135.25
2018-09-05T12:34:32.956Z,96136.63
2018-09-05T12:37:02.460Z,96141.22
2018-09-05T12:39:31.144Z,96133.52
2018-09-05T12:41:59.819Z,96129.94
2018-09-05T12:44:28.606Z,96129.34
2018-09-05T12:46:57.258Z,96122.30
2018-09-05T12:49:26.159Z,96122.17
2018-09-05T12:51:54.792Z,96118.27
2018-09-05T12:54:23.420Z,96128.55
2018-09-05T12:56:52.154Z,96119.42
2018-09-05T12:59:21.465Z,96114.13
2018-09-05T13:01:50.492Z,96120.80
2018-09-05T13:04:19.294Z,96113.01
2018-09-05T13:06:47.971Z,96112.88
2018-09-05T13:09:16.542Z,96107.63
2018-09-05T13:11:45.345Z,96109.48
2018-09-05T13:14:13.962Z,96106.52
2018-09-05T13:16:42.641Z,96104.91
2018-09-05T13:19:12.119Z,96101.83
2018-09-05T13:21:41.056Z,96102.33
2018-09-05T13:24:09.947Z,96104.05
2018-09-05T13:26:38.631Z,96101.33
2018-09-05T13:29:07.360Z,96103.90
2018-09-05T13:31:36.216Z,96105.13
2018-09-05T13:34:05.893Z,96100.60
2018-09-05T13:36:34.628Z,96101.82
2018-09-05T13:39:03.547Z,96102.97
2018-09-05T13:41:32.228Z,96108.20
2018-09-05T13:44:01.041Z,96102.94
2018-09-05T13:46:31.082Z,96106.14
2018-09-05T13:48:59.863Z,96099.53
2018-09-05T13:51:28.741Z,96107.42
2018-09-05T13:53:58.086Z,96103.41
2018-09-05T13:56:26.972Z,96101.89
2018-09-05T13:58:55.588Z,96096.95
2018-09-05T14:01:24.685Z,96092.30
2018-09-05T14:03:53.433Z,96092.78
2018-09-05T14:06:23.487Z,96102.43
2018-09-05T14:08:52.472Z,96103.12
2018-09-05T14:11:21.283Z,96094.45
2018-09-05T14:13:49.984Z,96102.84
2018-09-05T14:16:19.773Z,96094.64
2018-09-05T14:18:48.380Z,96095.08
2018-09-05T14:21:18.680Z,96093.64
2018-09-05T14:23:47.884Z,96091.67
2018-09-05T14:26:16.543Z,96095.73
2018-09-05T14:28:45.770Z,96086.28
2018-09-05T14:31:15.039Z,96091.64
2018-09-05T14:33:43.721Z,96088.19
2018-09-05T14:36:12.444Z,96095.94
2018-09-05T14:38:41.013Z,96088.00
2018-09-05T14:41:09.816Z,96083.75
2018-09-05T14:43:38.567Z,96084.81
2018-09-05T14:46:08.168Z,96088.03
2018-09-05T14:48:36.956Z,96087.22
2018-09-05T14:51:05.586Z,96081.99
2018-09-05T14:53:34.323Z,96086.92
2018-09-05T14:56:03.911Z,96085.37
2018-09-05T14:58:32.799Z,96080.44
2018-09-05T15:01:01.550Z,96083.88
2018-09-05T15:03:30.117Z,96085.19
2018-09-05T15:05:58.675Z,96085.26
2018-09-05T15:08:27.399Z,96086.02
2018-09-05T15:10:56.062Z,96079.44
2018-09-05T15:13:24.801Z,96080.44
2018-09-05T15:15:53.452Z,96078.98
2018-09-05T15:18:22.163Z,96083.09
2018-09-05T15:20:50.756Z,96086.15
2018-09-05T15:23:20.079Z,96081.77
2018-09-05T15:25:48.823Z,96075.25
2018-09-05T15:28:17.457Z,96071.23
2018-09-05T15:30:46.152Z,96074.45
2018-09-05T15:33:16.336Z,96074.52
2018-09-05T15:35:45.474Z,96074.70
2018-09-05T15:38:14.981Z,96075.72
2018-09-05T15:40:43.613Z,96071.77
2018-09-05T15:43:12.482Z,96080.91
2018-09-05T15:45:41.075Z,96070.95
2018-09-05T15:48:10.513Z,96071.75
2018-09-05T15:50:39.117Z,96073.68
2018-09-05T15:53:07.873Z,96068.45
2018-09-05T15:55:36.404Z,96068.31
2018-09-05T15:58:04.996Z,96065.34
2018-09-05T16:00:33.560Z,96070.84
2018-09-05T16:03:02.132Z,96070.31
2018-09-05T16:05:30.724Z,96072.45
2018-09-05T16:07:59.457Z,96073.31
2018-09-05T16:10:28.088Z,96079.75
2018-09-05T16:12:56.638Z,96072.77
2018-09-05T16:15:25.478Z,96080.45
2018-09-05T16:20:56.375Z,96086.13
2018-09-05T16:23:24.947Z,96079.92
2018-09-05T16:25:53.502Z,96078.14
2018-09-05T16:28:22.213Z,96075.72
2018-09-05T16:30:50.915Z,96081.17
2018-09-05T16:33:19.537Z,96071.41
2018-09-05T16:35:48.141Z,96071.17
2018-09-05T16:38:16.732Z,96072.89
2018-09-05T16:40:45.312Z,96080.91
2018-09-05T16:43:13.991Z,96082.34
2018-09-05T16:45:42.531Z,96085.97
2018-09-05T16:48:11.088Z,96088.97
2018-09-05T16:50:39.643Z,96093.17
2018-09-05T16:53:08.229Z,96086.22
2018-09-05T16:55:36.856Z,96082.40
2018-09-05T16:58:05.538Z,96088.67
2018-09-05T17:00:34.399Z,96092.33
2018-09-05T17:03:03.132Z,96087.01
2018-09-05T17:05:31.843Z,96092.79
2018-09-05T17:08:00.937Z,96087.38
2018-09-05T17:10:30.819Z,96084.55
2018-09-05T17:12:59.373Z,96091.56
2018-09-05T17:15:28.005Z,96089.80
2018-09-05T17:17:56.686Z,96097.55
2018-09-05T17:20:25.358Z,96099.35
2018-09-05T17:22:54.040Z,96093.66
2018-09-05T17:25:22.864Z,96092.58
2018-09-05T17:27:51.607Z,96095.55
2018-09-05T17:30:20.484Z,96097.53
2018-09-05T17:32:49.248Z,96104.66
2018-09-05T17:35:18.078Z,96102.69
2018-09-05T17:37:46.800Z,96104.89
2018-09-05T17:40:15.524Z,96104.70
2018-09-05T17:42:44.188Z,96107.90
2018-09-05T17:45:12.843Z,96108.58
2018-09-05T17:47:41.527Z,96109.91
2018-09-05T17:50:10.396Z,96110.20
2018-09-05T17:52:38.939Z,96109.69
2018-09-05T17:55:07.798Z,96115.86
2018-09-05T17:57:36.647Z,96114.22
2018-09-05T18:00:06.020Z,96112.17
2018-09-05T18:02:34.655Z,96117.62
2018-09-05T18:05:03.943Z,96118.28
2018-09-05T18:07:32.612Z,96124.23
2018-09-05T18:10:01.365Z,96119.98
2018-09-05T18:12:30.012Z,96118.67
2018-09-05T18:14:59.564Z,96132.70
2018-09-05T18:17:28.963Z,96138.04
2018-09-05T18:19:58.331Z,96136.94
2018-09-05T18:22:27.233Z,96135.45
2018-09-05T18:24:56.784Z,96137.05
2018-09-05T18:27:25.426Z,96143.56
2018-09-05T18:29:54.059Z,96141.84
2018-09-05T18:32:22.736Z,96141.72
2018-09-05T18:34:51.261Z,96142.69
2018-09-05T18:37:19.923Z,96144.85
2018-09-05T18:39:48.563Z,96146.33
2018-09-05T18:42:17.451Z,96140.83
2018-09-05T18:44:46.880Z,96149.18
2018-09-05T18:47:16.300Z,96149.05
2018-09-05T18:49:45.160Z,96144.19
2018-09-05T18:52:14.092Z,96144.70
2018-09-05T18:54:42.883Z,96143.56
2018-09-05T18:57:12.035Z,96139.19
2018-09-05T18:59:41.299Z,96142.60
2018-09-05T19:02:11.054Z,96142.60
2018-09-05T19:04:39.735Z,96136.26
2018-09-05T19:07:08.402Z,96138.55
2018-09-05T19:09:37.099Z,96131.89
2018-09-05T19:12:05.775Z,96131.11
2018-09-05T19:14:34.335Z,96129.94
2018-09-05T19:17:02.951Z,96134.34
2018-09-05T19:19:32.160Z,96136.47
2018-09-05T19:22:00.728Z,96133.86
2018-09-05T19:24:29.528Z,96135.34
2018-09-05T19:26:59.040Z,96132.77
2018-09-05T19:29:27.632Z,96136.96
2018-09-05T19:31:56.303Z,96135.19
2018-09-05T19:34:25.037Z,96133.22
2018-09-05T19:36:53.667Z,96132.73
2018-09-05T19:39:22.356Z,96128.36
2018-09-05T19:41:51.067Z,96132.75
2018-09-05T19:44:19.734Z,96130.14
2018-09-05T19:46:48.396Z,96129.02
2018-09-05T19:49:18.254Z,96128.52
2018-09-05T19:51:46.980Z,96126.59
2018-09-05T19:54:15.892Z,96131.27
2018-09-05T19:56:44.591Z,96131.13
2018-09-05T19:59:13.373Z,96123.84
2018-09-05T20:01:42.779Z,96123.48
2018-09-05T20:04:11.443Z,96119.95
2018-09-05T20:06:40.124Z,96123.17
2018-09-05T20:09:09.500Z,96122.22
2018-09-05T20:11:38.089Z,96127.58
2018-09-05T20:14:06.988Z,96120.59
2018-09-05T20:16:35.664Z,96121.25
2018-09-05T20:19:04.943Z,96117.19
2018-09-05T20:21:33.916Z,96112.81
2018-09-05T20:24:03.365Z,96115.58
2018-09-05T20:26:32.688Z,96109.58
2018-09-05T20:29:01.356Z,96112.99
2018-09-05T20:31:30.669Z,96107.45
2018-09-05T20:33:59.963Z,96109.91
2018-09-05T20:36:28.631Z,96109.59
2018-09-05T20:38:57.330Z,96105.36
2018-09-05T20:41:26.230Z,96103.08
2018-09-05T20:43:55.469Z,96100.00
2018-09-05T20:46:25.088Z,96102.27
2018-09-05T20:48:53.760Z,96100.19
2018-09-05T20:51:22.484Z,96101.78
2018-09-05T20:53:51.139Z,96099.70
2018-09-05T20:56:19.988Z,96103.90
2018-09-05T20:58:48.657Z,96104.05
2018-09-05T21:01:17.577Z,96110.23
2018-09-05T21:03:46.192Z,96104.06
2018-09-05T21:06:14.962Z,96103.57
2018-09-05T21:08:44.072Z,96104.50
2018-09-05T21:11:16.221Z,96105.30
2018-09-05T21:13:44.859Z,96108.88
2018-09-05T21:16:13.630Z,96109.52
2018-09-05T21:18:42.175Z,96110.50
2018-09-05T21:21:11.238Z,96105.17
2018-09-05T21:23:39.996Z,96107.60
2018-09-05T21:26:08.819Z,96109.24
2018-09-05T21:28:37.582Z,96100.83
2018-09-05T21:31:07.477Z,96103.24
2018-09-05T21:33:36.171Z,96104.02
2018-09-05T21:36:05.035Z,96110.48
2018-09-05T21:38:33.759Z,96105.94
2018-09-05T21:41:03.035Z,96104.64
2018-09-05T21:43:31.901Z,96102.69
2018-09-05T21:46:00.835Z,96097.02
2018-09-05T21:48:29.511Z,96099.77
2018-09-05T21:50:58.156Z,96102.83
2018-09-05T21:53:26.957Z,96100.38
2018-09-05T21:55:56.240Z,96095.12
2018-09-05T21:58:25.022Z,96099.84
2018-09-05T22:00:54.431Z,96095.46
2018-09-05T22:03:23.108Z,96091.58
2018-09-05T22:05:51.881Z,96096.80
2018-09-05T22:08:20.937Z,96093.55
2018-09-05T22:10:49.675Z,96096.00
2018-09-05T22:13:18.930Z,96097.11
2018-09-05T22:15:48.503Z,96097.78
2018-09-05T22:21:19.972Z,96091.63
2018-09-05T22:23:50.427Z,96091.08
2018-09-05T22:26:19.363Z,96091.92
2018-09-05T22:28:48.139Z,96093.08
2018-09-05T22:31:17.072Z,96088.38
2018-09-05T22:33:45.999Z,96088.38
2018-09-05T22:36:14.755Z,96088.22
2018-09-05T22:38:43.368Z,96089.98
2018-09-05T22:41:12.417Z,96092.08
2018-09-05T22:43:51.981Z,96086.11
2018-09-05T22:46:31.632Z,96082.73
2018-09-05T22:51:22.010Z,96090.16
2018-09-05T22:54:07.104Z,96095.41
2018-09-05T22:57:54.241Z,96095.60
2018-09-05T23:02:45.609Z,96096.08
2018-09-05T23:05:25.448Z,96100.86
2018-09-05T23:08:41.040Z,96096.00
2018-09-05T23:12:21.004Z,96094.42
2018-09-05T23:15:04.430Z,96086.00
2018-09-05T23:19:43.016Z,96088.42
2018-09-05T23:22:11.570Z,96087.11
2018-09-05T23:24:40.420Z,96084.04
2018-09-05T23:27:09.896Z,96076.97
2018-09-05T23:29:38.913Z,96081.34
2018-09-05T23:32:07.676Z,96081.84
2018-09-05T23:34:36.291Z,96083.27
2018-09-05T23:37:05.768Z,96086.02
2018-09-05T23:39:34.599Z,96082.14
2018-09-05T23:42:03.133Z,96074.67
2018-09-05T23:44:31.815Z,96071.73
2018-09-05T23:47:00.468Z,96079.50
2018-09-05T23:49:29.323Z,96077.86
2018-09-05T23:51:58.046Z,96079.79
2018-09-05T23:54:27.635Z,96084.33
2018-09-05T23:56:57.614Z,96082.38
2018-09-05T23:59:26.216Z,96082.69
